KMNZ

Hamilton Municipal Airport

Hamilton, Texas, USA
METAR KMNZ 210415Z AUTO 19012KT 10SM BKN009 13/13 A2995 RMK AO2
Observed Flight Rules
Jan-21 @ 04:15 UTC (24 minutes ago) Instrument Flight Rules
Wind Visibility Clouds
190° at 12 knots 10 miles
  • Broken at 900' AGL
Temperatures Readings
Current 13°C / 55°F
Dewpoint 13°C / 55°F
Humidity 100%
Altimeter 29.95" Hg
Pressure 1014 hPa
Elevation 396
METAR KMNZ 210415Z AUTO 19012KT 10SM BKN009 13/13 A2995 RMK AO2
Observed Flight Rules
Jan-21 @ 04:15 UTC
(24 minutes ago)
IFR
Wind Visibility
190° at 12 knots 10 miles
Clouds
  • Broken at 900' AGL
Temperature Dewpoint
13°C / 55°F 13°C / 55°F
Humidity Altimeter Pressure
100% 29.95" Hg 1014 hPa